sensor_id;sensor_type;location;lat;lon;timestamp;pressure;altitude;pressure_sealevel;temperature;humidity
68988;BME280;56038;46.080;11.116;2023-07-30T00:02:09;99030.00;;;22.10;100.00
68988;BME280;56038;46.080;11.116;2023-07-30T00:07:13;99036.69;;;22.05;100.00
68988;BME280;56038;46.080;11.116;2023-07-30T00:12:16;99051.25;;;21.81;100.00
68988;BME280;56038;46.080;11.116;2023-07-30T00:17:18;99045.03;;;21.23;100.00
68988;BME280;56038;46.080;11.116;2023-07-30T00:22:21;99051.13;;;21.04;100.00
68988;BME280;56038;46.080;11.116;2023-07-30T00:27:23;99051.38;;;20.91;100.00
68988;BME280;56038;46.080;11.116;2023-07-30T00:32:28;99060.22;;;21.02;100.00
68988;BME280;56038;46.080;11.116;2023-07-30T00:37:32;99062.16;;;21.00;100.00
68988;BME280;56038;46.080;11.116;2023-07-30T00:42:34;99052.63;;;20.87;100.00
68988;BME280;56038;46.080;11.116;2023-07-30T00:47:36;99036.84;;;20.96;100.00
68988;BME280;56038;46.080;11.116;2023-07-30T00:52:41;99036.00;;;20.85;100.00
68988;BME280;56038;46.080;11.116;2023-07-30T00:57:44;99037.91;;;20.74;100.00
68988;BME280;56038;46.080;11.116;2023-07-30T01:02:46;99045.50;;;20.57;100.00
68988;BME280;56038;46.080;11.116;2023-07-30T01:07:50;99044.53;;;20.58;100.00
68988;BME280;56038;46.080;11.116;2023-07-30T01:12:52;98986.81;;;20.30;100.00
68988;BME280;56038;46.080;11.116;2023-07-30T01:17:54;99019.56;;;20.19;100.00
68988;BME280;56038;46.080;11.116;2023-07-30T01:22:57;99042.09;;;20.25;100.00
68988;BME280;56038;46.080;11.116;2023-07-30T01:28:01;99032.84;;;20.19;100.00
68988;BME280;56038;46.080;11.116;2023-07-30T01:33:05;99023.94;;;20.20;100.00
68988;BME280;56038;46.080;11.116;2023-07-30T01:38:10;99044.94;;;20.12;100.00
68988;BME280;56038;46.080;11.116;2023-07-30T01:43:12;99023.03;;;20.10;100.00
68988;BME280;56038;46.080;11.116;2023-07-30T01:48:14;99008.69;;;19.92;100.00
68988;BME280;56038;46.080;11.116;2023-07-30T01:53:17;98982.66;;;19.86;100.00
68988;BME280;56038;46.080;11.116;2023-07-30T01:58:19;98966.53;;;19.89;100.00
68988;BME280;56038;46.080;11.116;2023-07-30T02:03:21;98959.84;;;19.94;100.00
68988;BME280;56038;46.080;11.116;2023-07-30T02:08:24;98960.41;;;19.98;100.00
68988;BME280;56038;46.080;11.116;2023-07-30T02:13:26;98965.84;;;19.96;100.00
68988;BME280;56038;46.080;11.116;2023-07-30T02:18:28;98984.59;;;19.84;100.00
68988;BME280;56038;46.080;11.116;2023-07-30T02:23:31;98995.22;;;19.84;100.00
68988;BME280;56038;46.080;11.116;2023-07-30T02:28:33;98980.72;;;19.88;100.00
68988;BME280;56038;46.080;11.116;2023-07-30T02:33:35;98994.09;;;19.86;100.00
68988;BME280;56038;46.080;11.116;2023-07-30T02:38:38;98987.38;;;19.82;100.00
68988;BME280;56038;46.080;11.116;2023-07-30T02:43:40;98981.38;;;19.80;100.00
68988;BME280;56038;46.080;11.116;2023-07-30T02:48:42;98983.06;;;19.81;100.00
68988;BME280;56038;46.080;11.116;2023-07-30T02:53:45;98971.44;;;19.72;100.00
68988;BME280;56038;46.080;11.116;2023-07-30T02:58:47;98955.34;;;19.64;100.00
68988;BME280;56038;46.080;11.116;2023-07-30T03:03:48;98976.97;;;19.69;100.00
68988;BME280;56038;46.080;11.116;2023-07-30T03:08:52;98981.84;;;19.64;100.00
68988;BME280;56038;46.080;11.116;2023-07-30T03:13:53;98980.84;;;19.65;100.00
68988;BME280;56038;46.080;11.116;2023-07-30T03:18:55;98992.44;;;19.64;100.00
68988;BME280;56038;46.080;11.116;2023-07-30T03:23:58;98993.41;;;19.63;100.00
68988;BME280;56038;46.080;11.116;2023-07-30T03:29:00;98997.16;;;19.61;100.00
68988;BME280;56038;46.080;11.116;2023-07-30T03:34:02;99001.13;;;19.55;100.00
68988;BME280;56038;46.080;11.116;2023-07-30T03:39:05;99006.06;;;19.49;100.00
68988;BME280;56038;46.080;11.116;2023-07-30T03:44:07;99004.78;;;19.43;100.00
68988;BME280;56038;46.080;11.116;2023-07-30T03:49:09;99022.72;;;19.39;100.00
68988;BME280;56038;46.080;11.116;2023-07-30T03:54:12;99025.41;;;19.28;100.00
68988;BME280;56038;46.080;11.116;2023-07-30T03:59:14;99027.94;;;19.30;100.00
68988;BME280;56038;46.080;11.116;2023-07-30T04:04:16;99028.41;;;19.35;100.00
68988;BME280;56038;46.080;11.116;2023-07-30T04:09:19;99035.25;;;19.37;100.00
68988;BME280;56038;46.080;11.116;2023-07-30T04:14:21;99025.69;;;19.25;100.00
68988;BME280;56038;46.080;11.116;2023-07-30T04:19:23;99036.28;;;19.25;100.00
68988;BME280;56038;46.080;11.116;2023-07-30T04:24:26;99028.94;;;19.06;100.00
68988;BME280;56038;46.080;11.116;2023-07-30T04:29:28;99032.78;;;19.13;100.00
68988;BME280;56038;46.080;11.116;2023-07-30T04:34:30;99032.16;;;19.21;100.00
68988;BME280;56038;46.080;11.116;2023-07-30T04:39:34;99038.53;;;19.30;100.00
68988;BME280;56038;46.080;11.116;2023-07-30T04:44:37;99054.50;;;19.39;100.00
68988;BME280;56038;46.080;11.116;2023-07-30T04:49:38;99070.03;;;19.44;100.00
68988;BME280;56038;46.080;11.116;2023-07-30T04:54:42;99068.22;;;19.44;100.00
68988;BME280;56038;46.080;11.116;2023-07-30T04:59:44;99077.16;;;19.43;100.00
68988;BME280;56038;46.080;11.116;2023-07-30T05:04:46;99069.28;;;19.53;100.00
68988;BME280;56038;46.080;11.116;2023-07-30T05:09:49;99080.72;;;19.54;100.00
68988;BME280;56038;46.080;11.116;2023-07-30T05:14:52;99081.69;;;19.64;100.00
68988;BME280;56038;46.080;11.116;2023-07-30T05:19:53;99071.38;;;19.82;100.00
68988;BME280;56038;46.080;11.116;2023-07-30T05:24:57;99076.25;;;19.97;100.00
68988;BME280;56038;46.080;11.116;2023-07-30T05:29:58;99066.16;;;20.12;100.00
68988;BME280;56038;46.080;11.116;2023-07-30T05:35:00;99067.91;;;20.23;100.00
68988;BME280;56038;46.080;11.116;2023-07-30T05:40:05;99075.88;;;20.23;100.00
68988;BME280;56038;46.080;11.116;2023-07-30T05:45:08;99074.81;;;20.35;100.00
68988;BME280;56038;46.080;11.116;2023-07-30T05:50:10;99080.84;;;20.58;100.00
68988;BME280;56038;46.080;11.116;2023-07-30T05:55:14;99079.25;;;20.76;100.00
68988;BME280;56038;46.080;11.116;2023-07-30T06:00:16;99076.25;;;20.90;100.00
68988;BME280;56038;46.080;11.116;2023-07-30T06:05:18;99079.03;;;20.99;100.00
68988;BME280;56038;46.080;11.116;2023-07-30T06:10:21;99084.97;;;21.02;100.00
68988;BME280;56038;46.080;11.116;2023-07-30T06:15:23;99072.06;;;20.98;100.00
68988;BME280;56038;46.080;11.116;2023-07-30T06:20:25;99073.91;;;21.07;100.00
68988;BME280;56038;46.080;11.116;2023-07-30T06:25:28;99084.72;;;21.15;100.00
68988;BME280;56038;46.080;11.116;2023-07-30T06:30:30;99082.09;;;21.25;100.00
68988;BME280;56038;46.080;11.116;2023-07-30T06:35:31;99098.22;;;21.42;100.00
68988;BME280;56038;46.080;11.116;2023-07-30T06:40:35;99091.53;;;21.58;100.00
68988;BME280;56038;46.080;11.116;2023-07-30T06:45:37;99095.34;;;21.65;100.00
68988;BME280;56038;46.080;11.116;2023-07-30T06:50:39;99099.97;;;21.82;100.00
68988;BME280;56038;46.080;11.116;2023-07-30T06:55:42;99080.34;;;22.02;100.00
68988;BME280;56038;46.080;11.116;2023-07-30T07:00:44;99089.31;;;22.21;100.00
68988;BME280;56038;46.080;11.116;2023-07-30T07:05:52;99085.97;;;22.28;100.00
68988;BME280;56038;46.080;11.116;2023-07-30T07:10:56;99077.53;;;22.42;100.00
68988;BME280;56038;46.080;11.116;2023-07-30T07:15:57;99077.91;;;22.57;100.00
68988;BME280;56038;46.080;11.116;2023-07-30T07:20:59;99074.97;;;22.60;100.00
68988;BME280;56038;46.080;11.116;2023-07-30T07:26:02;99068.50;;;22.63;100.00
68988;BME280;56038;46.080;11.116;2023-07-30T07:31:04;99071.25;;;22.71;100.00
68988;BME280;56038;46.080;11.116;2023-07-30T07:36:07;99074.19;;;22.78;100.00
68988;BME280;56038;46.080;11.116;2023-07-30T07:41:15;99061.84;;;22.86;100.00
68988;BME280;56038;46.080;11.116;2023-07-30T07:46:17;99064.03;;;23.00;100.00
68988;BME280;56038;46.080;11.116;2023-07-30T07:51:19;99065.34;;;23.14;100.00
68988;BME280;56038;46.080;11.116;2023-07-30T07:56:22;99071.13;;;23.37;100.00
68988;BME280;56038;46.080;11.116;2023-07-30T08:01:24;99046.91;;;23.48;100.00
68988;BME280;56038;46.080;11.116;2023-07-30T08:06:27;99054.16;;;23.56;100.00
68988;BME280;56038;46.080;11.116;2023-07-30T08:11:30;99049.69;;;23.74;100.00
68988;BME280;56038;46.080;11.116;2023-07-30T08:16:32;99034.34;;;23.94;100.00
68988;BME280;56038;46.080;11.116;2023-07-30T08:21:33;99027.47;;;24.09;100.00
68988;BME280;56038;46.080;11.116;2023-07-30T08:26:37;99040.31;;;24.14;100.00
68988;BME280;56038;46.080;11.116;2023-07-30T08:31:39;99031.56;;;24.22;100.00
68988;BME280;56038;46.080;11.116;2023-07-30T08:36:41;99019.53;;;24.43;100.00
68988;BME280;56038;46.080;11.116;2023-07-30T08:41:45;99011.94;;;24.57;100.00
68988;BME280;56038;46.080;11.116;2023-07-30T08:46:46;99015.06;;;24.78;100.00
68988;BME280;56038;46.080;11.116;2023-07-30T08:51:52;99012.94;;;24.98;100.00
68988;BME280;56038;46.080;11.116;2023-07-30T08:56:56;99008.22;;;25.26;100.00
68988;BME280;56038;46.080;11.116;2023-07-30T09:01:59;99000.72;;;25.54;99.02
68988;BME280;56038;46.080;11.116;2023-07-30T09:07:01;98993.56;;;25.71;98.05
68988;BME280;56038;46.080;11.116;2023-07-30T09:12:12;98996.06;;;25.96;94.06
68988;BME280;56038;46.080;11.116;2023-07-30T09:17:16;98983.16;;;26.16;94.82
68988;BME280;56038;46.080;11.116;2023-07-30T09:22:25;98978.59;;;26.33;91.58
68988;BME280;56038;46.080;11.116;2023-07-30T09:27:29;98963.25;;;26.74;91.78
68988;BME280;56038;46.080;11.116;2023-07-30T09:32:33;98955.34;;;27.12;90.65
68988;BME280;56038;46.080;11.116;2023-07-30T09:37:40;98954.56;;;27.34;85.08
68988;BME280;56038;46.080;11.116;2023-07-30T09:42:45;98942.50;;;27.76;85.70
68988;BME280;56038;46.080;11.116;2023-07-30T09:47:47;98945.44;;;28.19;84.59
68988;BME280;56038;46.080;11.116;2023-07-30T09:52:49;98947.53;;;28.23;83.11
68988;BME280;56038;46.080;11.116;2023-07-30T09:57:53;98939.63;;;28.59;81.10
68988;BME280;56038;46.080;11.116;2023-07-30T10:02:58;98934.81;;;29.06;79.38
68988;BME280;56038;46.080;11.116;2023-07-30T10:08:04;98942.94;;;29.34;78.11
68988;BME280;56038;46.080;11.116;2023-07-30T10:13:10;98936.22;;;29.44;74.46
68988;BME280;56038;46.080;11.116;2023-07-30T10:18:14;98934.84;;;29.70;73.04
68988;BME280;56038;46.080;11.116;2023-07-30T10:23:16;98913.13;;;30.34;70.38
68988;BME280;56038;46.080;11.116;2023-07-30T10:28:31;98906.34;;;30.51;66.39
68988;BME280;56038;46.080;11.116;2023-07-30T10:33:44;98921.03;;;30.83;65.00
68988;BME280;56038;46.080;11.116;2023-07-30T10:38:46;98912.53;;;30.86;66.52
68988;BME280;56038;46.080;11.116;2023-07-30T10:43:50;98912.44;;;31.27;64.60
68988;BME280;56038;46.080;11.116;2023-07-30T10:48:54;98895.84;;;31.90;62.32
68988;BME280;56038;46.080;11.116;2023-07-30T10:53:56;98885.66;;;31.99;60.30
68988;BME280;56038;46.080;11.116;2023-07-30T10:58:59;98882.03;;;32.38;58.64
68988;BME280;56038;46.080;11.116;2023-07-30T11:04:01;98871.75;;;31.88;59.32
68988;BME280;56038;46.080;11.116;2023-07-30T11:09:03;98870.91;;;31.35;59.65
68988;BME280;56038;46.080;11.116;2023-07-30T11:14:14;98871.69;;;31.03;55.81
68988;BME280;56038;46.080;11.116;2023-07-30T11:19:17;98871.31;;;31.85;57.50
68988;BME280;56038;46.080;11.116;2023-07-30T11:24:19;98858.53;;;32.32;54.14
68988;BME280;56038;46.080;11.116;2023-07-30T11:29:22;98852.03;;;31.62;55.98
68988;BME280;56038;46.080;11.116;2023-07-30T11:34:25;98847.19;;;31.97;55.89
68988;BME280;56038;46.080;11.116;2023-07-30T11:39:27;98852.19;;;33.02;52.46
68988;BME280;56038;46.080;11.116;2023-07-30T11:44:32;98849.06;;;33.55;50.35
68988;BME280;56038;46.080;11.116;2023-07-30T11:49:34;98842.94;;;33.10;49.62
68988;BME280;56038;46.080;11.116;2023-07-30T11:54:36;98838.34;;;33.42;48.52
68988;BME280;56038;46.080;11.116;2023-07-30T11:59:40;98822.13;;;34.04;47.60
68988;BME280;56038;46.080;11.116;2023-07-30T12:04:45;98846.06;;;34.07;45.44
68988;BME280;56038;46.080;11.116;2023-07-30T12:09:47;98833.84;;;33.79;47.97
68988;BME280;56038;46.080;11.116;2023-07-30T12:14:54;98822.47;;;33.21;45.80
68988;BME280;56038;46.080;11.116;2023-07-30T12:20:00;98816.75;;;32.72;48.55
68988;BME280;56038;46.080;11.116;2023-07-30T12:25:07;98806.69;;;33.43;49.37
68988;BME280;56038;46.080;11.116;2023-07-30T12:30:12;98812.66;;;33.51;46.92
68988;BME280;56038;46.080;11.116;2023-07-30T12:35:14;98797.38;;;33.07;48.60
68988;BME280;56038;46.080;11.116;2023-07-30T12:40:16;98793.31;;;32.60;46.36
68988;BME280;56038;46.080;11.116;2023-07-30T12:45:19;98795.56;;;33.01;47.47
68988;BME280;56038;46.080;11.116;2023-07-30T12:50:21;98794.84;;;33.62;43.69
68988;BME280;56038;46.080;11.116;2023-07-30T12:55:23;98792.53;;;34.20;44.04
68988;BME280;56038;46.080;11.116;2023-07-30T13:00:27;98780.38;;;35.25;41.97
68988;BME280;56038;46.080;11.116;2023-07-30T13:05:29;98782.00;;;35.02;43.38
68988;BME280;56038;46.080;11.116;2023-07-30T13:10:31;98776.13;;;35.29;43.17
68988;BME280;56038;46.080;11.116;2023-07-30T13:15:34;98776.38;;;35.27;41.53
68988;BME280;56038;46.080;11.116;2023-07-30T13:20:36;98778.88;;;35.40;43.19
68988;BME280;56038;46.080;11.116;2023-07-30T13:25:38;98776.38;;;35.62;41.97
68988;BME280;56038;46.080;11.116;2023-07-30T13:30:41;98760.81;;;35.46;40.36
68988;BME280;56038;46.080;11.116;2023-07-30T13:35:44;98772.09;;;34.96;43.31
68988;BME280;56038;46.080;11.116;2023-07-30T13:40:46;98767.13;;;34.93;42.93
68988;BME280;56038;46.080;11.116;2023-07-30T13:45:49;98761.84;;;34.68;42.94
68988;BME280;56038;46.080;11.116;2023-07-30T13:50:51;98761.59;;;34.58;43.29
68988;BME280;56038;46.080;11.116;2023-07-30T13:55:53;98756.44;;;34.80;43.95
68988;BME280;56038;46.080;11.116;2023-07-30T14:00:56;98751.69;;;35.05;43.10
68988;BME280;56038;46.080;11.116;2023-07-30T14:05:58;98741.66;;;35.29;42.16
68988;BME280;56038;46.080;11.116;2023-07-30T14:11:00;98735.97;;;35.31;42.79
68988;BME280;56038;46.080;11.116;2023-07-30T14:16:03;98726.44;;;35.52;42.29
68988;BME280;56038;46.080;11.116;2023-07-30T14:21:05;98731.03;;;35.04;42.23
68988;BME280;56038;46.080;11.116;2023-07-30T14:26:07;98736.59;;;35.21;43.37
68988;BME280;56038;46.080;11.116;2023-07-30T14:31:10;98728.78;;;35.01;42.79
68988;BME280;56038;46.080;11.116;2023-07-30T14:36:12;98746.97;;;32.88;47.16
68988;BME280;56038;46.080;11.116;2023-07-30T14:41:14;98743.59;;;32.61;48.92
68988;BME280;56038;46.080;11.116;2023-07-30T14:46:17;98735.09;;;32.89;47.90
68988;BME280;56038;46.080;11.116;2023-07-30T14:51:19;98739.44;;;32.90;48.35
68988;BME280;56038;46.080;11.116;2023-07-30T14:56:21;98754.47;;;32.86;48.00
68988;BME280;56038;46.080;11.116;2023-07-30T15:01:28;98751.69;;;31.65;50.58
68988;BME280;56038;46.080;11.116;2023-07-30T15:06:30;98734.94;;;30.70;53.62
68988;BME280;56038;46.080;11.116;2023-07-30T15:11:32;98756.97;;;30.19;55.59
68988;BME280;56038;46.080;11.116;2023-07-30T15:16:35;98749.72;;;29.44;58.32
68988;BME280;56038;46.080;11.116;2023-07-30T15:21:37;98743.84;;;29.34;59.48
68988;BME280;56038;46.080;11.116;2023-07-30T15:26:39;98751.72;;;29.63;58.40
68988;BME280;56038;46.080;11.116;2023-07-30T15:31:42;98750.00;;;30.58;55.79
68988;BME280;56038;46.080;11.116;2023-07-30T15:36:44;98754.03;;;31.02;54.16
68988;BME280;56038;46.080;11.116;2023-07-30T15:41:46;98753.63;;;31.18;53.73
68988;BME280;56038;46.080;11.116;2023-07-30T15:46:49;98755.28;;;31.32;53.54
68988;BME280;56038;46.080;11.116;2023-07-30T15:51:52;98742.63;;;31.26;53.98
68988;BME280;56038;46.080;11.116;2023-07-30T15:56:54;98730.59;;;30.82;54.72
68988;BME280;56038;46.080;11.116;2023-07-30T16:01:57;98735.16;;;30.95;54.83
68988;BME280;56038;46.080;11.116;2023-07-30T16:06:59;98735.13;;;31.08;54.21
68988;BME280;56038;46.080;11.116;2023-07-30T16:12:01;98735.34;;;30.87;54.75
68988;BME280;56038;46.080;11.116;2023-07-30T16:17:05;98740.88;;;30.52;55.94
68988;BME280;56038;46.080;11.116;2023-07-30T16:22:07;98749.81;;;30.46;56.14
68988;BME280;56038;46.080;11.116;2023-07-30T16:27:09;98752.06;;;30.42;56.04
68988;BME280;56038;46.080;11.116;2023-07-30T16:32:13;98751.22;;;30.35;56.56
68988;BME280;56038;46.080;11.116;2023-07-30T16:37:14;98752.56;;;30.05;57.87
68988;BME280;56038;46.080;11.116;2023-07-30T16:42:19;98752.63;;;29.77;61.00
68988;BME280;56038;46.080;11.116;2023-07-30T16:47:22;98755.09;;;29.44;61.55
68988;BME280;56038;46.080;11.116;2023-07-30T16:52:24;98756.09;;;29.36;61.88
68988;BME280;56038;46.080;11.116;2023-07-30T16:57:26;98770.13;;;29.32;61.97
68988;BME280;56038;46.080;11.116;2023-07-30T17:02:31;98770.41;;;29.15;62.15
68988;BME280;56038;46.080;11.116;2023-07-30T17:07:33;98779.03;;;29.04;62.98
68988;BME280;56038;46.080;11.116;2023-07-30T17:12:35;98780.19;;;28.95;63.86
68988;BME280;56038;46.080;11.116;2023-07-30T17:17:38;98782.97;;;28.87;64.51
68988;BME280;56038;46.080;11.116;2023-07-30T17:22:40;98798.44;;;28.63;65.95
68988;BME280;56038;46.080;11.116;2023-07-30T17:27:42;98794.53;;;28.45;66.94
68988;BME280;56038;46.080;11.116;2023-07-30T17:32:45;98802.00;;;28.28;67.36
68988;BME280;56038;46.080;11.116;2023-07-30T17:37:47;98811.53;;;27.86;69.86
68988;BME280;56038;46.080;11.116;2023-07-30T17:42:50;98808.13;;;27.78;69.58
68988;BME280;56038;46.080;11.116;2023-07-30T17:47:54;98817.47;;;27.67;70.57
68988;BME280;56038;46.080;11.116;2023-07-30T17:52:56;98822.19;;;27.42;72.22
68988;BME280;56038;46.080;11.116;2023-07-30T17:57:57;98825.66;;;27.13;73.63
68988;BME280;56038;46.080;11.116;2023-07-30T18:03:01;98832.59;;;26.76;76.27
68988;BME280;56038;46.080;11.116;2023-07-30T18:08:03;98838.19;;;26.67;76.76
68988;BME280;56038;46.080;11.116;2023-07-30T18:13:05;98846.00;;;26.53;77.55
68988;BME280;56038;46.080;11.116;2023-07-30T18:18:09;98851.56;;;26.44;78.90
68988;BME280;56038;46.080;11.116;2023-07-30T18:23:12;98861.44;;;26.35;78.68
68988;BME280;56038;46.080;11.116;2023-07-30T18:28:14;98859.81;;;26.18;80.11
68988;BME280;56038;46.080;11.116;2023-07-30T18:33:17;98873.25;;;26.10;80.24
68988;BME280;56038;46.080;11.116;2023-07-30T18:38:19;98877.63;;;26.03;80.83
68988;BME280;56038;46.080;11.116;2023-07-30T18:43:20;98893.72;;;25.94;81.29
68988;BME280;56038;46.080;11.116;2023-07-30T18:48:25;98902.91;;;25.92;81.35
68988;BME280;56038;46.080;11.116;2023-07-30T18:53:28;98901.25;;;25.83;82.04
68988;BME280;56038;46.080;11.116;2023-07-30T18:58:30;98908.47;;;25.74;82.37
68988;BME280;56038;46.080;11.116;2023-07-30T19:03:33;98921.19;;;25.72;83.22
68988;BME280;56038;46.080;11.116;2023-07-30T19:08:35;98926.84;;;25.69;82.57
68988;BME280;56038;46.080;11.116;2023-07-30T19:13:37;98929.69;;;25.59;83.04
68988;BME280;56038;46.080;11.116;2023-07-30T19:18:40;98941.06;;;25.45;84.53
68988;BME280;56038;46.080;11.116;2023-07-30T19:23:42;98940.22;;;25.45;84.39
68988;BME280;56038;46.080;11.116;2023-07-30T19:28:44;98948.06;;;25.46;84.17
68988;BME280;56038;46.080;11.116;2023-07-30T19:33:47;98956.75;;;25.40;85.43
68988;BME280;56038;46.080;11.116;2023-07-30T19:38:49;98960.25;;;25.32;86.14
68988;BME280;56038;46.080;11.116;2023-07-30T19:43:51;98968.09;;;25.18;88.01
68988;BME280;56038;46.080;11.116;2023-07-30T19:48:54;98973.44;;;25.10;89.25
68988;BME280;56038;46.080;11.116;2023-07-30T19:54:02;98969.59;;;25.12;88.75
68988;BME280;56038;46.080;11.116;2023-07-30T19:59:05;98983.38;;;24.99;90.54
68988;BME280;56038;46.080;11.116;2023-07-30T20:04:09;98980.84;;;24.82;92.45
68988;BME280;56038;46.080;11.116;2023-07-30T20:09:11;98987.50;;;24.77;93.11
68988;BME280;56038;46.080;11.116;2023-07-30T20:14:13;98992.63;;;24.71;93.57
68988;BME280;56038;46.080;11.116;2023-07-30T20:19:16;98995.13;;;24.64;93.69
68988;BME280;56038;46.080;11.116;2023-07-30T20:24:18;98996.06;;;24.55;94.20
68988;BME280;56038;46.080;11.116;2023-07-30T20:29:20;99009.97;;;24.67;92.77
68988;BME280;56038;46.080;11.116;2023-07-30T20:34:23;99006.81;;;24.71;92.38
68988;BME280;56038;46.080;11.116;2023-07-30T20:39:25;99011.84;;;24.74;91.42
68988;BME280;56038;46.080;11.116;2023-07-30T20:44:27;99018.41;;;24.80;90.73
68988;BME280;56038;46.080;11.116;2023-07-30T20:49:32;99021.38;;;24.77;91.38
68988;BME280;56038;46.080;11.116;2023-07-30T20:54:34;99025.19;;;24.74;91.25
68988;BME280;56038;46.080;11.116;2023-07-30T20:59:39;99032.34;;;24.66;92.11
68988;BME280;56038;46.080;11.116;2023-07-30T21:04:42;99035.63;;;24.60;92.64
68988;BME280;56038;46.080;11.116;2023-07-30T21:09:44;99035.13;;;24.56;93.01
68988;BME280;56038;46.080;11.116;2023-07-30T21:14:46;99026.44;;;24.54;93.57
68988;BME280;56038;46.080;11.116;2023-07-30T21:19:49;99031.59;;;24.47;95.94
68988;BME280;56038;46.080;11.116;2023-07-30T21:24:51;99034.03;;;24.41;96.80
68988;BME280;56038;46.080;11.116;2023-07-30T21:29:53;99025.84;;;24.34;96.55
68988;BME280;56038;46.080;11.116;2023-07-30T21:34:56;99039.22;;;24.42;95.14
68988;BME280;56038;46.080;11.116;2023-07-30T21:39:58;99039.06;;;24.44;95.17
68988;BME280;56038;46.080;11.116;2023-07-30T21:45:00;99038.03;;;24.19;99.64
68988;BME280;56038;46.080;11.116;2023-07-30T21:50:04;99038.91;;;24.02;99.85
68988;BME280;56038;46.080;11.116;2023-07-30T21:55:07;99050.41;;;24.20;97.65
68988;BME280;56038;46.080;11.116;2023-07-30T22:00:09;99055.41;;;24.23;98.06
68988;BME280;56038;46.080;11.116;2023-07-30T22:05:13;99060.19;;;23.94;100.00
68988;BME280;56038;46.080;11.116;2023-07-30T22:10:15;99057.91;;;23.99;100.00
68988;BME280;56038;46.080;11.116;2023-07-30T22:15:17;99070.09;;;24.01;99.28
68988;BME280;56038;46.080;11.116;2023-07-30T22:20:20;99069.31;;;24.09;98.68
68988;BME280;56038;46.080;11.116;2023-07-30T22:25:22;99073.22;;;24.14;98.17
68988;BME280;56038;46.080;11.116;2023-07-30T22:30:24;99062.31;;;24.08;98.39
68988;BME280;56038;46.080;11.116;2023-07-30T22:35:27;99061.47;;;24.07;98.59
68988;BME280;56038;46.080;11.116;2023-07-30T22:40:29;99066.59;;;24.01;99.18
68988;BME280;56038;46.080;11.116;2023-07-30T22:45:31;99076.19;;;23.94;99.27
68988;BME280;56038;46.080;11.116;2023-07-30T22:50:34;99072.22;;;23.98;98.57
68988;BME280;56038;46.080;11.116;2023-07-30T22:55:37;99087.19;;;23.90;99.58
68988;BME280;56038;46.080;11.116;2023-07-30T23:00:39;99082.75;;;23.81;100.00
68988;BME280;56038;46.080;11.116;2023-07-30T23:05:43;99084.19;;;23.76;100.00
68988;BME280;56038;46.080;11.116;2023-07-30T23:10:44;99094.50;;;23.88;99.69
68988;BME280;56038;46.080;11.116;2023-07-30T23:15:46;99094.88;;;23.94;99.33
68988;BME280;56038;46.080;11.116;2023-07-30T23:20:49;99101.56;;;23.98;98.84
68988;BME280;56038;46.080;11.116;2023-07-30T23:25:51;99103.28;;;23.99;98.83
68988;BME280;56038;46.080;11.116;2023-07-30T23:30:53;99114.22;;;23.96;99.32
68988;BME280;56038;46.080;11.116;2023-07-30T23:35:56;99105.16;;;23.88;99.87
68988;BME280;56038;46.080;11.116;2023-07-30T23:40:58;99100.81;;;23.70;100.00
68988;BME280;56038;46.080;11.116;2023-07-30T23:46:00;99100.75;;;23.79;100.00
68988;BME280;56038;46.080;11.116;2023-07-30T23:51:04;99088.69;;;23.75;100.00
68988;BME280;56038;46.080;11.116;2023-07-30T23:56:06;99093.66;;;23.70;100.00
